Time;durP1;ratioP1;P1;durP2;ratioP2;P2;SDS_P1;SDS_P2;PMS_P1;PMS_P2;Temp;Humidity;BMP_temperature;BMP_pressure;BME280_temperature;BME280_humidity;BME280_pressure;Samples;Min_cycle;Max_cycle;Signal;HPM_P1;HPM_P2
2023/01/25 00:00:52;;;;;;;29.47;10.50;;;;;;;2.54;100.00;97735.44;5035840;28;20416;-69
2023/01/25 00:03:19;;;;;;;28.43;9.33;;;;;;;2.43;100.00;97737.84;5035842;28;20197;-69
2023/01/25 00:05:45;;;;;;;31.20;9.73;;;;;;;2.41;100.00;97742.31;5034655;28;20217;-69
2023/01/25 00:08:11;;;;;;;31.93;10.03;;;;;;;2.42;100.00;97730.97;5035514;28;20599;-69
2023/01/25 00:10:39;;;;;;;26.93;8.53;;;;;;;2.57;100.00;97726.59;5035464;28;20486;-69
2023/01/25 00:13:06;;;;;;;31.70;9.10;;;;;;;2.57;100.00;97724.00;5035489;28;20201;-69
2023/01/25 00:15:32;;;;;;;25.40;9.17;;;;;;;2.52;100.00;97733.84;5034847;28;20398;-69
2023/01/25 00:17:59;;;;;;;28.33;9.23;;;;;;;2.43;100.00;97742.19;5035522;28;20210;-69
2023/01/25 00:20:26;;;;;;;32.47;9.87;;;;;;;2.43;100.00;97739.59;5035764;28;20209;-69
2023/01/25 00:22:52;;;;;;;30.93;9.40;;;;;;;2.40;100.00;97746.78;5035422;28;20248;-69
2023/01/25 00:25:19;;;;;;;33.20;9.50;;;;;;;2.40;100.00;97736.38;5034615;28;21018;-69
2023/01/25 00:27:47;;;;;;;27.70;10.50;;;;;;;2.52;100.00;97724.28;5035013;28;20217;-69
2023/01/25 00:30:13;;;;;;;36.40;10.17;;;;;;;2.45;100.00;97735.16;5035786;28;20233;-69
2023/01/25 00:32:54;;;;;;;27.67;9.60;;;;;;;2.55;100.00;97741.47;5035256;28;20198;-69
2023/01/25 00:35:21;;;;;;;26.33;9.17;;;;;;;2.41;100.00;97729.28;5034783;28;20687;-69
2023/01/25 00:37:49;;;;;;;25.40;9.50;;;;;;;2.36;100.00;97732.28;5037052;28;20209;-69
2023/01/25 00:40:16;;;;;;;28.97;10.27;;;;;;;2.40;100.00;97725.97;5039369;28;20201;-69
2023/01/25 00:42:43;;;;;;;26.50;7.83;;;;;;;2.26;100.00;97731.16;5039561;28;20223;-69
2023/01/25 00:45:12;;;;;;;21.93;8.40;;;;;;;2.42;100.00;97728.38;5039224;28;20203;-69
2023/01/25 00:47:39;;;;;;;30.30;9.33;;;;;;;2.35;100.00;97735.81;5038765;28;20206;-69
2023/01/25 00:50:06;;;;;;;25.07;8.23;;;;;;;2.42;100.00;97725.78;5039305;28;20219;-69
2023/01/25 00:52:33;;;;;;;26.67;8.63;;;;;;;2.36;100.00;97720.09;5039229;28;20226;-69
2023/01/25 00:54:59;;;;;;;25.03;8.47;;;;;;;2.45;100.00;97725.56;5038537;28;20920;-69
2023/01/25 00:57:26;;;;;;;29.93;9.43;;;;;;;2.44;100.00;97721.31;5038933;28;20682;-69
2023/01/25 00:59:52;;;;;;;34.37;10.23;;;;;;;2.47;100.00;97708.13;5039379;28;20235;-69
2023/01/25 01:02:20;;;;;;;27.70;9.40;;;;;;;2.50;100.00;97713.13;5038695;28;21085;-69
2023/01/25 01:04:46;;;;;;;29.90;9.03;;;;;;;2.41;100.00;97718.88;5037615;28;20673;-69
2023/01/25 01:07:14;;;;;;;25.37;7.73;;;;;;;2.48;100.00;97709.81;5039390;28;20216;-69
2023/01/25 01:09:40;;;;;;;24.10;8.57;;;;;;;2.39;100.00;97713.88;5038809;28;20234;-69
2023/01/25 01:12:08;;;;;;;25.53;9.20;;;;;;;2.44;100.00;97718.72;5038690;28;20217;-69
2023/01/25 01:14:34;;;;;;;23.60;8.00;;;;;;;2.43;100.00;97722.25;5038390;28;20210;-69
2023/01/25 01:17:00;;;;;;;24.80;8.10;;;;;;;2.24;100.00;97720.84;5038954;28;20480;-69
2023/01/25 01:19:28;;;;;;;21.23;7.77;;;;;;;2.37;100.00;97716.56;5038649;28;20220;-69
2023/01/25 01:21:55;;;;;;;18.67;7.57;;;;;;;2.34;100.00;97718.53;5038106;28;20222;-69
2023/01/25 01:24:21;;;;;;;24.47;7.70;;;;;;;2.27;100.00;97712.03;5038345;28;20202;-69
2023/01/25 01:26:47;;;;;;;24.50;9.17;;;;;;;2.39;100.00;97708.69;5038862;28;20206;-69
2023/01/25 01:29:14;;;;;;;28.63;8.40;;;;;;;2.35;100.00;97712.41;5038560;28;20227;-69
2023/01/25 01:31:40;;;;;;;25.33;8.23;;;;;;;2.48;100.00;97709.81;5038569;28;20201;-69
2023/01/25 01:34:07;;;;;;;29.33;8.27;;;;;;;2.46;100.00;97709.03;5038193;28;20203;-69
2023/01/25 01:36:35;;;;;;;21.37;7.70;;;;;;;2.46;100.00;97706.44;5037877;28;20369;-69
2023/01/25 01:39:01;;;;;;;18.47;7.23;;;;;;;2.37;100.00;97705.31;5038303;28;20227;-69
2023/01/25 01:41:28;;;;;;;22.07;8.23;;;;;;;2.43;100.00;97697.97;5039017;28;20332;-69
2023/01/25 01:43:54;;;;;;;24.23;8.00;;;;;;;2.49;100.00;97702.81;5037313;28;20206;-69
2023/01/25 01:46:28;;;;;;;22.43;7.33;;;;;;;2.52;100.00;97711.28;5038598;28;20201;-69
2023/01/25 01:49:00;;;;;;;27.33;8.33;;;;;;;2.58;100.00;97703.13;5037892;28;20648;-69
2023/01/25 01:51:36;;;;;;;28.17;8.13;;;;;;;2.58;100.00;97710.06;5038521;28;20201;-69
2023/01/25 01:54:07;;;;;;;26.57;8.60;;;;;;;2.53;100.00;97702.56;5038524;28;20214;-69
2023/01/25 01:56:38;;;;;;;23.63;7.73;;;;;;;2.45;100.00;97699.56;5039100;28;20219;-69
2023/01/25 01:59:06;;;;;;;21.77;8.43;;;;;;;2.46;100.00;97703.84;5038268;28;20735;-69
2023/01/25 02:01:33;;;;;;;22.03;7.03;;;;;;;2.36;100.00;97693.25;5037736;28;20229;-69
2023/01/25 02:04:01;;;;;;;25.47;8.63;;;;;;;2.39;100.00;97703.47;5037790;28;20213;-69
2023/01/25 02:06:33;;;;;;;24.53;8.40;;;;;;;2.46;100.00;97690.84;5038512;28;20197;-69
2023/01/25 02:09:01;;;;;;;21.07;7.97;;;;;;;2.49;100.00;97698.44;5037725;28;20225;-69
2023/01/25 02:11:30;;;;;;;27.93;7.93;;;;;;;2.54;100.00;97703.38;5038319;28;20218;-69
2023/01/25 02:13:59;;;;;;;15.07;6.87;;;;;;;2.52;100.00;97697.41;5037219;28;20197;-69
2023/01/25 02:16:28;;;;;;;28.13;8.97;;;;;;;2.48;100.00;97699.41;5038082;28;20460;-69
2023/01/25 02:18:57;;;;;;;27.63;8.80;;;;;;;2.55;100.00;97698.06;5037740;28;20540;-69
2023/01/25 02:21:25;;;;;;;25.37;8.33;;;;;;;2.41;100.00;97695.47;5037612;28;20232;-69
2023/01/25 02:23:57;;;;;;;25.40;7.87;;;;;;;2.57;100.00;97698.84;5036749;28;20587;-69
2023/01/25 02:26:25;;;;;;;22.53;8.57;;;;;;;2.32;100.00;97696.94;5037899;28;20206;-69
2023/01/25 02:28:56;;;;;;;20.77;7.23;;;;;;;2.29;100.00;97697.16;5037581;28;20221;-69
2023/01/25 02:31:22;;;;;;;18.20;6.70;;;;;;;2.22;100.00;97703.66;5037651;28;20644;-69
2023/01/25 02:33:49;;;;;;;20.17;6.90;;;;;;;2.32;100.00;97708.22;5036831;28;20850;-69
2023/01/25 02:36:21;;;;;;;18.17;6.63;;;;;;;2.45;100.00;97698.72;5038426;28;20201;-69
2023/01/25 02:38:53;;;;;;;21.37;7.13;;;;;;;2.30;100.00;97704.03;5037113;28;20275;-69
2023/01/25 02:41:27;;;;;;;17.27;6.67;;;;;;;2.37;100.00;97706.19;5037808;28;20215;-69
2023/01/25 02:43:53;;;;;;;19.87;6.83;;;;;;;2.35;100.00;97707.19;5036501;28;20206;-69
2023/01/25 02:46:24;;;;;;;19.07;7.00;;;;;;;2.37;100.00;97705.31;5037445;28;20209;-69
2023/01/25 02:48:51;;;;;;;20.70;6.77;;;;;;;2.34;100.00;97700.31;5036978;28;20418;-69
2023/01/25 02:51:18;;;;;;;19.17;7.57;;;;;;;2.31;100.00;97696.13;5038070;28;20213;-69
2023/01/25 02:53:44;;;;;;;22.77;6.80;;;;;;;2.25;100.00;97696.47;5036601;28;20224;-69
2023/01/25 02:56:11;;;;;;;23.37;6.87;;;;;;;2.33;100.00;97689.09;5037679;28;20220;-69
2023/01/25 02:58:39;;;;;;;19.60;6.30;;;;;;;2.30;100.00;97693.63;5037309;28;20600;-69
2023/01/25 03:01:05;;;;;;;24.27;7.80;;;;;;;2.24;100.00;97693.97;5036757;28;20213;-69
2023/01/25 03:03:31;;;;;;;22.97;7.47;;;;;;;2.16;100.00;97697.03;5036649;28;20484;-69
2023/01/25 03:05:58;;;;;;;19.27;7.60;;;;;;;2.31;100.00;97688.31;5037293;28;20210;-69
2023/01/25 03:08:24;;;;;;;23.27;7.03;;;;;;;2.23;100.00;97687.09;5036617;28;20222;-69
2023/01/25 03:10:52;;;;;;;20.17;7.27;;;;;;;2.22;100.00;97682.84;5036624;28;20399;-69
2023/01/25 03:13:18;;;;;;;20.43;6.87;;;;;;;2.22;100.00;97682.84;5037631;28;20667;-69
2023/01/25 03:15:46;;;;;;;19.47;6.57;;;;;;;2.15;100.00;97678.94;5036387;28;20219;-69
2023/01/25 03:18:12;;;;;;;23.47;7.17;;;;;;;2.20;100.00;97679.50;5036243;28;20701;-69
2023/01/25 03:20:39;;;;;;;22.30;7.13;;;;;;;2.20;100.00;97687.28;5037172;28;20572;-69
2023/01/25 03:23:05;;;;;;;20.77;7.60;;;;;;;2.29;100.00;97681.53;5036454;28;20225;-69
2023/01/25 03:25:32;;;;;;;17.83;6.57;;;;;;;2.30;100.00;97683.22;5035813;28;20497;-69
2023/01/25 03:27:58;;;;;;;22.47;7.00;;;;;;;2.19;100.00;97681.28;5036889;28;20203;-69
2023/01/25 03:30:25;;;;;;;22.50;9.13;;;;;;;2.15;100.00;97684.13;5036892;28;20208;-69
2023/01/25 03:32:53;;;;;;;21.90;7.37;;;;;;;2.24;100.00;97671.44;5036302;28;20201;-69
2023/01/25 03:35:19;;;;;;;25.53;8.23;;;;;;;2.18;100.00;97679.59;5036081;28;20197;-69
2023/01/25 03:37:45;;;;;;;20.83;7.63;;;;;;;2.19;100.00;97670.00;5036620;28;20209;-69
2023/01/25 03:40:12;;;;;;;25.00;8.20;;;;;;;2.23;100.00;97667.16;5036240;28;20764;-69
2023/01/25 03:42:39;;;;;;;23.47;7.57;;;;;;;2.23;100.00;97669.75;5036305;28;20892;-69
2023/01/25 03:45:06;;;;;;;24.50;7.23;;;;;;;2.28;100.00;97666.84;5035758;28;20210;-69
2023/01/25 03:47:33;;;;;;;20.80;7.77;;;;;;;2.31;100.00;97669.28;5035512;28;20209;-69
2023/01/25 03:50:00;;;;;;;17.43;7.43;;;;;;;2.39;100.00;97672.25;5036650;28;20318;-69
2023/01/25 03:52:28;;;;;;;24.77;8.13;;;;;;;2.29;100.00;97666.78;5035802;28;20917;-69
2023/01/25 03:54:55;;;;;;;23.83;7.67;;;;;;;2.30;100.00;97662.41;5035159;28;20221;-69
2023/01/25 03:57:21;;;;;;;23.40;7.67;;;;;;;2.36;100.00;97659.44;5036375;28;20202;-69
2023/01/25 03:59:48;;;;;;;22.10;7.53;;;;;;;2.35;100.00;97662.97;5035778;28;20737;-69
2023/01/25 04:02:14;;;;;;;20.70;7.93;;;;;;;2.32;100.00;97660.53;5035818;28;20231;-69
2023/01/25 04:04:40;;;;;;;23.90;8.23;;;;;;;2.18;100.00;97655.38;5035652;28;20214;-69
2023/01/25 04:07:08;;;;;;;20.73;8.23;;;;;;;2.24;100.00;97652.38;5036552;28;20205;-69
2023/01/25 04:09:35;;;;;;;18.37;7.00;;;;;;;2.18;100.00;97652.75;5036590;28;20226;-69
2023/01/25 04:12:01;;;;;;;28.13;8.30;;;;;;;2.23;100.00;97645.50;5036365;28;20202;-69
2023/01/25 04:14:27;;;;;;;23.60;7.77;;;;;;;2.31;100.00;97644.13;5035325;28;20616;-69
2023/01/25 04:16:54;;;;;;;24.90;8.37;;;;;;;2.23;100.00;97645.50;5036022;28;20201;-69
2023/01/25 04:19:20;;;;;;;23.67;8.43;;;;;;;2.15;100.00;97632.13;5036079;28;20238;-68
2023/01/25 04:21:47;;;;;;;13.83;5.50;;;;;;;2.14;100.00;97635.66;5035483;28;20201;-68
2023/01/25 04:24:15;;;;;;;21.47;7.40;;;;;;;2.26;100.00;97634.94;5035554;28;20216;-69
2023/01/25 04:26:41;;;;;;;27.07;8.03;;;;;;;2.13;100.00;97629.63;5035893;28;20518;-68
2023/01/25 04:29:08;;;;;;;27.90;8.00;;;;;;;2.18;100.00;97627.59;5035427;28;20739;-68
2023/01/25 04:31:34;;;;;;;28.37;8.00;;;;;;;2.18;100.00;97621.56;5035698;28;20633;-69
2023/01/25 04:34:00;;;;;;;30.33;7.80;;;;;;;2.20;100.00;97619.69;5035697;28;20197;-69
2023/01/25 04:36:27;;;;;;;24.43;8.10;;;;;;;2.17;100.00;97618.09;5036135;28;20232;-69
2023/01/25 04:38:53;;;;;;;27.53;8.67;;;;;;;2.34;100.00;97611.88;5036618;28;20247;-69
2023/01/25 04:41:25;;;;;;;21.20;7.17;;;;;;;2.32;100.00;97614.59;5036529;28;20201;-69
2023/01/25 04:43:52;;;;;;;20.77;7.03;;;;;;;2.25;100.00;97612.44;5035364;28;20221;-69
2023/01/25 04:46:18;;;;;;;24.97;8.67;;;;;;;2.23;100.00;97607.34;5036697;28;20201;-69
2023/01/25 04:48:45;;;;;;;29.47;8.10;;;;;;;2.32;100.00;97603.31;5036090;28;20233;-69
2023/01/25 04:51:13;;;;;;;23.57;7.13;;;;;;;2.32;100.00;97606.78;5035542;28;20212;-69
2023/01/25 04:53:39;;;;;;;24.27;7.20;;;;;;;2.32;100.00;97611.13;5035589;28;20212;-69
2023/01/25 04:56:06;;;;;;;23.73;6.93;;;;;;;2.36;100.00;97610.84;5035956;28;20669;-69
2023/01/25 04:58:34;;;;;;;26.83;7.57;;;;;;;2.26;100.00;97617.53;5035814;28;20234;-69
2023/01/25 05:01:01;;;;;;;24.37;7.87;;;;;;;2.16;100.00;97615.59;5036203;28;20211;-69
2023/01/25 05:03:31;;;;;;;22.90;7.03;;;;;;;2.29;100.00;97612.19;5036521;28;20321;-69
2023/01/25 05:05:57;;;;;;;27.70;8.57;;;;;;;2.26;100.00;97611.53;5035568;28;21294;-69
2023/01/25 05:08:24;;;;;;;28.73;7.77;;;;;;;2.33;100.00;97615.41;5036196;28;20591;-69
2023/01/25 05:10:51;;;;;;;22.70;7.13;;;;;;;2.33;100.00;97608.47;5035888;28;20295;-69
2023/01/25 05:13:17;;;;;;;24.83;7.87;;;;;;;2.25;100.00;97621.06;5035922;28;20197;-69
2023/01/25 05:15:45;;;;;;;22.20;8.40;;;;;;;2.24;100.00;97616.81;5035263;28;20206;-69
2023/01/25 05:18:12;;;;;;;27.33;8.00;;;;;;;2.18;100.00;97613.75;5035963;28;20226;-69
2023/01/25 05:20:38;;;;;;;25.17;7.70;;;;;;;2.33;100.00;97610.19;5035986;28;20220;-69
2023/01/25 05:23:05;;;;;;;20.13;6.67;;;;;;;2.21;100.00;97616.16;5035868;28;20233;-69
2023/01/25 05:28:16;;;;;;;21.90;6.53;;;;;;;2.36;100.00;97613.47;5040033;28;20236;-69
2023/01/25 05:30:42;;;;;;;21.30;7.07;;;;;;;2.17;100.00;97609.47;5039432;28;20567;-69
2023/01/25 05:33:10;;;;;;;25.50;7.97;;;;;;;2.21;100.00;97610.97;5039382;28;20199;-69
2023/01/25 05:35:36;;;;;;;22.57;7.80;;;;;;;2.24;100.00;97605.56;5039306;28;20243;-69
2023/01/25 05:38:03;;;;;;;19.27;7.03;;;;;;;2.07;100.00;97604.00;5039013;28;20217;-69
2023/01/25 05:40:29;;;;;;;20.10;7.27;;;;;;;2.16;100.00;97602.59;5039370;28;20210;-69
2023/01/25 05:42:57;;;;;;;26.20;7.67;;;;;;;2.19;100.00;97597.22;5039374;28;20214;-69
2023/01/25 05:45:23;;;;;;;21.87;8.07;;;;;;;2.17;100.00;97605.09;5038638;28;20197;-69
2023/01/25 05:47:52;;;;;;;25.07;7.77;;;;;;;2.28;100.00;97596.66;5038595;28;20206;-69
2023/01/25 05:50:20;;;;;;;24.43;8.40;;;;;;;2.27;100.00;97597.59;5039089;28;20279;-69
2023/01/25 05:52:47;;;;;;;25.10;7.27;;;;;;;2.24;100.00;97590.81;5039141;28;20204;-69
2023/01/25 05:55:13;;;;;;;18.70;7.67;;;;;;;2.30;100.00;97594.78;5038470;28;20219;-69
2023/01/25 05:57:40;;;;;;;23.17;7.33;;;;;;;2.37;100.00;97594.34;5039303;28;20209;-69
2023/01/25 06:00:08;;;;;;;22.87;7.53;;;;;;;2.31;100.00;97586.91;5039137;28;20232;-69
2023/01/25 06:02:35;;;;;;;28.47;8.77;;;;;;;2.21;100.00;97590.16;5038556;28;20227;-69
2023/01/25 06:05:02;;;;;;;25.40;7.57;;;;;;;2.24;100.00;97584.75;5038270;28;20211;-69
2023/01/25 06:07:35;;;;;;;24.40;7.67;;;;;;;2.45;100.00;97586.88;5038833;28;20205;-69
2023/01/25 06:10:01;;;;;;;20.13;7.30;;;;;;;2.28;100.00;97578.44;5038884;28;20714;-69
2023/01/25 06:12:27;;;;;;;25.60;7.40;;;;;;;2.22;100.00;97578.84;5039043;28;20214;-69
2023/01/25 06:14:54;;;;;;;24.40;7.90;;;;;;;2.21;100.00;97579.75;5038051;28;20198;-69
2023/01/25 06:17:20;;;;;;;23.13;7.27;;;;;;;2.24;100.00;97584.75;5040025;28;20202;-69
2023/01/25 06:19:47;;;;;;;26.50;7.50;;;;;;;2.22;100.00;97584.84;5039035;28;20232;-69
2023/01/25 06:22:14;;;;;;;15.47;6.30;;;;;;;2.25;100.00;97582.06;5038840;28;20199;-69
2023/01/25 06:24:42;;;;;;;21.77;6.10;;;;;;;2.14;100.00;97587.09;5038039;28;20231;-69
2023/01/25 06:27:09;;;;;;;19.43;6.33;;;;;;;2.15;100.00;97590.53;5038423;28;20212;-69
2023/01/25 06:29:36;;;;;;;19.37;7.27;;;;;;;2.09;100.00;97583.94;5038628;28;21222;-69
2023/01/25 06:32:02;;;;;;;23.23;6.40;;;;;;;2.10;100.00;97580.44;5038855;28;20571;-69
2023/01/25 06:34:29;;;;;;;17.33;6.37;;;;;;;2.10;100.00;97584.78;5037360;28;20209;-69
2023/01/25 06:36:55;;;;;;;22.10;6.47;;;;;;;2.11;100.00;97583.84;5037689;28;20209;-68
2023/01/25 06:39:22;;;;;;;17.07;6.23;;;;;;;2.12;100.00;97580.31;5038542;28;20229;-69
2023/01/25 06:41:49;;;;;;;19.70;6.50;;;;;;;2.25;100.00;97587.25;5038299;28;20212;-69
2023/01/25 06:44:16;;;;;;;20.50;5.57;;;;;;;2.18;100.00;97583.38;5037418;28;20223;-69
2023/01/25 06:46:42;;;;;;;18.73;5.37;;;;;;;2.07;100.00;97583.19;5037909;28;20218;-69
2023/01/25 06:49:10;;;;;;;22.70;6.90;;;;;;;2.13;100.00;97587.19;5038383;28;20226;-69
2023/01/25 06:51:36;;;;;;;18.07;5.73;;;;;;;2.18;100.00;97585.16;5037936;28;20606;-69
2023/01/25 06:54:03;;;;;;;13.97;5.23;;;;;;;1.98;100.00;97580.31;5037343;28;20662;-69
2023/01/25 06:56:31;;;;;;;17.50;5.90;;;;;;;2.01;100.00;97587.94;5037767;28;20637;-69
2023/01/25 06:58:59;;;;;;;24.20;6.57;;;;;;;2.05;100.00;97584.22;5037985;28;20755;-69
2023/01/25 07:01:29;;;;;;;20.23;6.80;;;;;;;2.14;100.00;97575.84;5037896;28;20209;-69
2023/01/25 07:03:57;;;;;;;18.27;6.90;;;;;;;2.20;100.00;97573.75;5037279;28;20226;-69
2023/01/25 07:06:26;;;;;;;21.03;6.50;;;;;;;2.13;100.00;97571.59;5037528;28;20202;-69
2023/01/25 07:08:52;;;;;;;22.20;6.37;;;;;;;2.14;100.00;97575.84;5037341;28;20227;-69
2023/01/25 07:11:19;;;;;;;20.50;6.10;;;;;;;2.14;100.00;97568.91;5037857;28;20201;-69
2023/01/25 07:13:47;;;;;;;17.33;6.67;;;;;;;2.09;100.00;97563.16;5036523;28;20981;-69
2023/01/25 07:16:16;;;;;;;21.20;5.37;;;;;;;2.09;100.00;97570.94;5037579;28;20201;-69
2023/01/25 07:18:43;;;;;;;20.17;6.00;;;;;;;2.11;100.00;97563.03;5038185;28;20607;-69
2023/01/25 07:21:12;;;;;;;16.10;5.13;;;;;;;2.13;100.00;97566.41;5037668;28;20207;-69
2023/01/25 07:23:40;;;;;;;30.20;6.70;;;;;;;2.11;100.00;97568.25;5036470;28;20313;-69
2023/01/25 07:26:14;;;;;;;18.37;5.87;;;;;;;2.17;100.00;97573.91;5037564;28;20199;-69
2023/01/25 07:28:41;;;;;;;20.47;6.80;;;;;;;2.13;100.00;97569.81;5036807;28;20230;-69
2023/01/25 07:31:07;;;;;;;19.40;6.43;;;;;;;2.01;100.00;97564.53;5037310;28;20623;-69
2023/01/25 07:33:35;;;;;;;19.10;6.30;;;;;;;2.15;100.00;97570.59;5037161;28;20668;-69
2023/01/25 07:36:02;;;;;;;25.60;7.30;;;;;;;2.22;100.00;97561.47;5037089;28;20198;-69
2023/01/25 07:38:29;;;;;;;20.70;7.87;;;;;;;2.07;100.00;97562.41;5037031;28;20232;-69
2023/01/25 07:40:56;;;;;;;19.87;6.73;;;;;;;1.97;100.00;97557.84;5037128;28;20205;-69
2023/01/25 07:43:22;;;;;;;17.93;6.20;;;;;;;2.01;100.00;97564.53;5036878;28;21378;-69
2023/01/25 07:45:49;;;;;;;21.87;6.80;;;;;;;1.95;100.00;97552.75;5036355;28;20218;-69
2023/01/25 07:48:16;;;;;;;25.93;7.73;;;;;;;2.07;100.00;97554.59;5036740;28;20221;-69
2023/01/25 07:50:48;;;;;;;20.50;6.73;;;;;;;2.10;100.00;97550.97;5037156;28;21045;-69
2023/01/25 07:53:15;;;;;;;24.43;7.60;;;;;;;2.10;100.00;97545.78;5036970;28;20208;-69
2023/01/25 07:55:41;;;;;;;21.07;7.20;;;;;;;2.12;100.00;97546.53;5035524;28;20222;-69
2023/01/25 07:58:10;;;;;;;25.17;6.50;;;;;;;2.26;100.00;97542.13;5037336;28;20701;-69
2023/01/25 08:00:36;;;;;;;24.27;8.20;;;;;;;2.11;100.00;97548.28;5036632;28;20205;-69
2023/01/25 08:03:03;;;;;;;25.87;6.90;;;;;;;2.17;100.00;97547.09;5036503;28;20199;-69
2023/01/25 08:05:30;;;;;;;25.50;8.37;;;;;;;2.08;100.00;97534.66;5036320;28;20277;-69
2023/01/25 08:07:57;;;;;;;27.57;7.97;;;;;;;2.25;100.00;97539.63;5037376;28;20214;-69
2023/01/25 08:10:24;;;;;;;24.40;7.70;;;;;;;2.16;100.00;97540.19;5035940;28;20204;-69
2023/01/25 08:12:50;;;;;;;27.47;7.37;;;;;;;2.27;100.00;97533.41;5036152;28;20994;-70
2023/01/25 08:15:17;;;;;;;20.73;6.53;;;;;;;2.21;100.00;97527.75;5035644;28;20222;-69
2023/01/25 08:17:43;;;;;;;25.37;8.77;;;;;;;2.28;100.00;97529.03;5036410;28;20281;-69
2023/01/25 08:20:11;;;;;;;18.57;7.13;;;;;;;2.40;100.00;97527.31;5036260;28;20224;-70
2023/01/25 08:22:37;;;;;;;22.53;6.67;;;;;;;2.44;100.00;97530.56;5036652;28;20301;-70
2023/01/25 08:25:07;;;;;;;23.70;7.73;;;;;;;2.45;100.00;97535.69;5035590;28;20222;-69
2023/01/25 08:27:33;;;;;;;21.33;7.77;;;;;;;2.38;100.00;97530.97;5036535;28;20203;-70
2023/01/25 08:30:00;;;;;;;25.07;7.87;;;;;;;2.32;100.00;97535.69;5036289;28;20218;-69
2023/01/25 08:32:26;;;;;;;25.80;7.80;;;;;;;2.36;100.00;97542.41;5036693;28;20219;-69
2023/01/25 08:34:52;;;;;;;23.57;7.63;;;;;;;2.39;100.00;97542.22;5035285;28;20202;-69
2023/01/25 08:37:19;;;;;;;24.63;7.30;;;;;;;2.44;100.00;97540.97;5036503;28;20202;-69
2023/01/25 08:39:46;;;;;;;24.90;6.87;;;;;;;2.47;100.00;97539.03;5036296;28;20228;-69
2023/01/25 08:42:14;;;;;;;24.93;8.10;;;;;;;2.48;100.00;97545.06;5036193;28;20603;-69
2023/01/25 08:44:40;;;;;;;26.80;7.53;;;;;;;2.25;100.00;97537.84;5035765;28;20235;-70
2023/01/25 08:47:07;;;;;;;26.33;8.10;;;;;;;2.21;100.00;97536.38;5036178;28;20877;-70
2023/01/25 08:49:34;;;;;;;24.80;8.43;;;;;;;2.27;100.00;97532.59;5035167;28;20234;-69
2023/01/25 08:52:00;;;;;;;27.80;8.70;;;;;;;2.31;100.00;97531.47;5035522;28;20238;-70
2023/01/25 08:54:27;;;;;;;27.07;8.87;;;;;;;2.31;100.00;97528.84;5034947;28;20259;-69
2023/01/25 08:56:54;;;;;;;27.10;7.20;;;;;;;2.28;100.00;97529.03;5035130;28;20676;-69
2023/01/25 08:59:22;;;;;;;27.23;7.70;;;;;;;2.27;100.00;97528.22;5037978;28;20224;-68
2023/01/25 09:01:48;;;;;;;19.60;7.60;;;;;;;2.32;100.00;97525.31;5039416;28;20583;-70
2023/01/25 09:04:15;;;;;;;24.60;6.63;;;;;;;2.26;100.00;97530.91;5037978;28;20522;-69
2023/01/25 09:06:41;;;;;;;23.37;7.63;;;;;;;2.19;100.00;97527.84;5039491;28;20208;-70
2023/01/25 09:09:08;;;;;;;20.47;6.87;;;;;;;2.26;100.00;97528.31;5039608;28;20230;-68
2023/01/25 09:11:35;;;;;;;25.30;7.80;;;;;;;2.28;100.00;97526.44;5038891;28;20211;-70
2023/01/25 09:14:02;;;;;;;25.23;7.07;;;;;;;2.17;100.00;97526.28;5038638;28;20204;-69
2023/01/25 09:16:30;;;;;;;25.00;7.10;;;;;;;2.11;100.00;97526.66;5040364;28;20209;-70
2023/01/25 09:18:58;;;;;;;27.10;7.17;;;;;;;2.21;100.00;97522.56;5038568;28;20650;-69
2023/01/25 09:21:24;;;;;;;23.20;7.47;;;;;;;2.23;100.00;97518.94;5038958;28;20209;-70
2023/01/25 09:23:52;;;;;;;25.90;7.17;;;;;;;2.17;100.00;97514.09;5038526;28;20221;-70
2023/01/25 09:26:19;;;;;;;30.23;7.43;;;;;;;2.18;100.00;97513.19;5039158;28;20203;-69
2023/01/25 09:28:48;;;;;;;28.43;6.77;;;;;;;2.14;100.00;97523.84;5038446;28;20233;-70
2023/01/25 09:31:14;;;;;;;20.33;5.77;;;;;;;1.99;100.00;97520.44;5038937;28;20232;-69
2023/01/25 09:33:42;;;;;;;23.90;7.30;;;;;;;1.99;100.00;97519.63;5038245;28;20205;-70
2023/01/25 09:36:09;;;;;;;16.77;5.17;;;;;;;1.92;100.00;97510.50;5038612;28;20201;-69
2023/01/25 09:38:36;;;;;;;20.07;6.73;;;;;;;1.92;100.00;97515.72;5038426;28;20223;-69
2023/01/25 09:41:18;;;;;;;21.83;6.50;;;;;;;2.12;100.00;97515.31;5038791;28;20209;-69
2023/01/25 09:44:09;;;;;;;19.63;7.63;;;;;;;1.98;100.00;97517.94;5037582;28;20212;-69
2023/01/25 09:46:40;;;;;;;24.23;6.90;;;;;;;2.04;100.00;97520.19;5036456;28;20202;-69
2023/01/25 09:49:22;;;;;;;22.87;6.50;;;;;;;2.01;100.00;97517.75;5038812;28;20235;-70
2023/01/25 09:52:03;;;;;;;28.77;7.67;;;;;;;2.11;100.00;97516.25;5038357;28;20344;-69
2023/01/25 09:54:34;;;;;;;20.03;6.17;;;;;;;2.03;100.00;97514.13;5037394;28;20205;-70
2023/01/25 09:57:02;;;;;;;24.27;6.80;;;;;;;1.99;100.00;97514.41;5038653;28;20563;-70
2023/01/25 09:59:30;;;;;;;24.23;7.10;;;;;;;2.04;100.00;97504.56;5038562;28;20226;-70
2023/01/25 10:02:02;;;;;;;26.50;7.40;;;;;;;2.19;100.00;97506.19;5038627;28;20234;-69
2023/01/25 10:04:37;;;;;;;26.13;8.10;;;;;;;2.26;100.00;97505.72;5037948;28;20225;-69
2023/01/25 10:07:14;;;;;;;25.53;7.40;;;;;;;2.28;100.00;97498.69;5037707;28;20205;-70
2023/01/25 10:09:47;;;;;;;27.73;7.60;;;;;;;2.28;100.00;97500.44;5037738;28;20239;-69
2023/01/25 10:12:19;;;;;;;28.93;7.67;;;;;;;2.40;100.00;97497.88;5038116;28;20208;-69
2023/01/25 10:14:46;;;;;;;25.17;7.30;;;;;;;2.34;100.00;97493.06;5037745;28;20201;-70
2023/01/25 10:17:20;;;;;;;18.13;6.03;;;;;;;2.50;100.00;97494.59;5038333;28;20205;-69
2023/01/25 10:20:03;;;;;;;19.73;6.23;;;;;;;2.46;100.00;97498.34;5038226;28;20235;-69
2023/01/25 10:22:35;;;;;;;24.70;6.67;;;;;;;2.38;100.00;97493.72;5037713;28;20538;-70
2023/01/25 10:25:21;;;;;;;26.77;7.80;;;;;;;2.51;100.00;97495.44;5037193;28;20221;-69
2023/01/25 10:28:01;;;;;;;23.43;7.20;;;;;;;2.44;100.00;97489.81;5038347;28;20520;-69
2023/01/25 10:30:30;;;;;;;23.70;7.70;;;;;;;2.45;100.00;97486.25;5037578;28;20206;-69
2023/01/25 10:33:00;;;;;;;24.80;7.40;;;;;;;2.62;100.00;97478.22;5037086;28;20475;-69
2023/01/25 10:35:34;;;;;;;25.00;7.73;;;;;;;2.48;100.00;97474.81;5037340;28;20208;-69
2023/01/25 10:38:06;;;;;;;19.43;6.37;;;;;;;2.36;100.00;97474.78;5037179;28;20281;-69
2023/01/25 10:40:41;;;;;;;25.83;7.30;;;;;;;2.45;100.00;97464.63;5038132;28;20372;-69
2023/01/25 10:43:15;;;;;;;23.87;7.87;;;;;;;2.31;100.00;97469.03;5038186;28;20578;-69
2023/01/25 10:45:43;;;;;;;27.57;7.90;;;;;;;2.10;100.00;97459.97;5037937;28;20230;-70
2023/01/25 10:48:15;;;;;;;18.10;5.93;;;;;;;2.17;100.00;97454.31;5037607;28;20283;-69
2023/01/25 10:50:46;;;;;;;18.70;6.47;;;;;;;2.21;100.00;97452.34;5037259;28;20209;-69
2023/01/25 10:53:25;;;;;;;16.47;5.93;;;;;;;2.29;100.00;97452.69;5037113;28;20203;-70
2023/01/25 10:56:11;;;;;;;18.00;6.93;;;;;;;2.38;100.00;97449.50;5036427;28;20213;-69
2023/01/25 10:58:40;;;;;;;23.33;6.87;;;;;;;2.25;100.00;97448.63;5037451;28;20531;-69
2023/01/25 11:01:10;;;;;;;21.27;7.57;;;;;;;2.35;100.00;97447.09;5036901;28;20206;-69
2023/01/25 11:03:39;;;;;;;24.80;7.93;;;;;;;2.43;100.00;97443.91;5036859;28;20448;-70
2023/01/25 11:06:09;;;;;;;22.10;7.00;;;;;;;2.33;100.00;97439.41;5037210;28;20608;-69
2023/01/25 11:08:37;;;;;;;22.43;8.17;;;;;;;2.48;100.00;97436.66;5036991;28;20221;-69
2023/01/25 11:11:24;;;;;;;23.63;7.47;;;;;;;2.61;100.00;97428.84;5036945;28;20212;-69
2023/01/25 11:13:51;;;;;;;27.83;7.63;;;;;;;2.50;100.00;97432.16;5036674;28;20205;-69
2023/01/25 11:16:29;;;;;;;20.57;6.27;;;;;;;2.52;100.00;97425.09;5037381;28;20202;-69
2023/01/25 11:18:57;;;;;;;22.03;7.10;;;;;;;2.44;100.00;97424.78;5036708;28;20217;-69
2023/01/25 11:21:28;;;;;;;22.70;8.77;;;;;;;2.36;100.00;97417.56;5036440;28;20202;-69
2023/01/25 11:24:16;;;;;;;24.50;7.00;;;;;;;2.34;100.00;97420.25;5035838;28;20201;-69
2023/01/25 11:26:43;;;;;;;29.47;8.57;;;;;;;2.34;100.00;97419.44;5036678;28;20251;-69
2023/01/25 11:29:15;;;;;;;20.77;7.27;;;;;;;2.32;100.00;97418.69;5036910;28;20215;-69
2023/01/25 11:31:44;;;;;;;20.27;7.57;;;;;;;2.23;100.00;97421.88;5036537;28;20211;-69